Aérodrome :
LOGIN :

S'inscrire | Disclaimer

   EN    FR    IT 

 










Légende :    VFR   VFR Marginal   IFR   IFR Intensif   IFR Très Intensif
Visi : 
Plafond : 
>= 8 km
>= 3000ft
5 à 8 km
1000 à 3000 ft
1500m à 5 km
500 à 1000 ft
800 à 1500m
200 à 500 ft
< 800m
< 200 ft
Symboles :   Orages  Brouillard  Fortes neiges  Fortes précipitations  Vent > 20 kt
SIGMETs :   Divers  Orages  Givrage  Turbulence  Onde Orograph.  Cendres Volcan.







- Altitude de l'aérodrome : 1411 ft
- Code IATA : SZG


LOWS - Salzburg

DERNIER METAR :
  • 211250Z 34008KT 9999 -SHRA FEW015 BKN030 BKN050 19/16 Q1014 TEMPO SHRA

METARs EXPIRÉS :
  • 211220Z 33009KT 9999 FEW015 BKN030 BKN050 19/15 Q1014 NOSIG
  • 211150Z 33011KT 9999 FEW015 SCT028 BKN045 19/15 Q1014 NOSIG
  • 211120Z 33009KT 290V360 9999 -SHRA FEW015 BKN045 19/16 Q1014 NOSIG
  • 211050Z 35007KT 9999 -SHRA FEW025 BKN045 19/15 Q1014 NOSIG
  • 211020Z 34009KT 9999 FEW025 BKN042 19/15 Q1014 NOSIG

TAF TAF LOWS
Valide du 21 à 12h jusqu'au 22 à 12h UTC


211115Z 2112/2212 32007KT 9999 FEW025 BKN045 TX20/2115Z TN16/2204Z
TEMPO 2112/2122 VRB10KT SHRA FEW030CB BKN030
PROB40
TEMPO 2114/2120 32015G25KT 7000 TSRA BKN020 FEW030CB
BECMG 2122/2124 -RA FEW010 BKN030
TEMPO 2124/2212 5000 RA SCT007 BKN015
Pas de NOTAMs connus pour ce terrain.
1 SIGMET publié pour la FIR Wien (LOVV) :
 
Orages en lignes de grains
LOVV SIGMET 1 VALID 211146/211330 LOWW
LOVV WIEN FIR SQL TS OBS WI N4910 E01430 - N4805 E01555 - N4750 E01515 - N4900 E01350 - N4910 E01430 TOP FL400 STNR INTSF=



MET'MAP, la Météo Aéronautique d'un coup d'oeil ! - Copyright ORBIFLY Décembre 2007 - Disclaimer

ORBIFLY MET'MAP TEAM :

Programmation & Développement : Alexandra Zaïnal
Conception & Développement : Baudouin d'Aumeries
Co-Programmation & Développement : Marc-Olivier Méhu
Soutien technique & logistique : Manuel Goepfert

Contact : metmap@orbifly.com




SOURCES & CREDITS :

   NOAA